Time;durP1;ratioP1;P1;durP2;ratioP2;P2;SDS_P1;SDS_P2;PMS_P1;PMS_P2;Temp;Humidity;BMP_temperature;BMP_pressure;BME280_temperature;BME280_humidity;BME280_pressure;Samples;Min_cycle;Max_cycle;Signal;HPM_P1;HPM_P2
2020/01/12 00:00:27;;;;;;;23.8;20.4;;;;;;;1.43;93.68945;971.4372;;;;
2020/01/12 00:02:51;;;;;;;23.7;20.1;;;;;;;1.51;93.62695;971.3942;;;;
2020/01/12 00:05:16;;;;;;;22.8;19.9;;;;;;;1.65;92.54004;971.3718;;;;
2020/01/12 00:07:41;;;;;;;21.8;19.4;;;;;;;1.52;92.75;971.3199;;;;
2020/01/12 00:10:07;;;;;;;23.2;19.7;;;;;;;1.47;93.01953;971.3004;;;;
2020/01/12 00:12:49;;;;;;;21.8;19.4;;;;;;;1.56;92.46484;971.2681;;;;
2020/01/12 00:15:01;;;;;;;21.5;18.8;;;;;;;1.58;92.33301;971.2479;;;;
2020/01/12 00:17:26;;;;;;;22.9;19.3;;;;;;;1.44;92.99121;971.2178;;;;
2020/01/12 00:19:48;;;;;;;22.5;19.3;;;;;;;1.44;93.20508;971.2269;;;;
2020/01/12 00:22:13;;;;;;;22.2;19.2;;;;;;;1.59;92.39355;971.2199;;;;
2020/01/12 00:24:38;;;;;;;21.5;19.2;;;;;;;1.46;92.86133;971.2467;;;;
2020/01/12 00:27:03;;;;;;;24.4;20.2;;;;;;;1.4;92.8457;971.1719;;;;
2020/01/12 00:29:30;;;;;;;25;21.3;;;;;;;1.44;92.7998;971.1941;;;;
2020/01/12 00:31:53;;;;;;;27.1;22.8;;;;;;;1.34;92.55273;971.2112;;;;
2020/01/12 00:34:18;;;;;;;23.7;20.3;;;;;;;1.35;92.61328;971.1788;;;;
2020/01/12 00:36:43;;;;;;;21.3;19;;;;;;;1.53;92.29102;971.1259;;;;
2020/01/12 00:39:09;;;;;;;25;20.5;;;;;;;1.14;94.0498;971.1155;;;;
2020/01/12 00:41:34;;;;;;;22.4;19.6;;;;;;;1.15;94.14355;971.1037;;;;
2020/01/12 00:43:59;;;;;;;22.9;19.2;;;;;;;1.15;94.49316;971.0883;;;;
2020/01/12 00:46:25;;;;;;;22;19.4;;;;;;;1.24;93.9834;971.0388;;;;
2020/01/12 00:48:50;;;;;;;23.2;20;;;;;;;1.28;93.86816;971.0452;;;;
2020/01/12 00:51:15;;;;;;;25.6;20.6;;;;;;;1.23;94.03809;971.0667;;;;
2020/01/12 00:53:41;;;;;;;23.7;20.8;;;;;;;1.27;94.14746;971.0513;;;;
2020/01/12 00:56:06;;;;;;;22.8;19.8;;;;;;;1.26;94.26953;971.0491;;;;
2020/01/12 00:58:31;;;;;;;22.7;20.2;;;;;;;1.41;93.37891;971.0352;;;;
2020/01/12 01:00:56;;;;;;;23;20.5;;;;;;;1.37;94.04492;971.0014;;;;
2020/01/12 01:03:22;;;;;;;23.3;20.9;;;;;;;1.26;94.39355;970.9785;;;;
2020/01/12 01:05:47;;;;;;;25.9;21.9;;;;;;;1.17;95.46484;970.9846;;;;
2020/01/12 01:08:12;;;;;;;23.7;21.2;;;;;;;1.23;94.65723;970.9127;;;;
2020/01/12 01:10:37;;;;;;;26;22;;;;;;;1.22;94.97949;970.8956;;;;
2020/01/12 01:13:02;;;;;;;24.2;21.7;;;;;;;1.14;95.48145;970.9194;;;;
2020/01/12 01:15:28;;;;;;;24.5;21.4;;;;;;;1.21;95.12402;970.8879;;;;
2020/01/12 01:17:53;;;;;;;26.5;23.4;;;;;;;1.24;95.16406;970.8998;;;;
2020/01/12 01:20:18;;;;;;;24.9;22.2;;;;;;;1.19;95.54785;970.8326;;;;
2020/01/12 01:22:43;;;;;;;24.1;21.6;;;;;;;1.25;95.10254;970.8589;;;;
2020/01/12 01:25:09;;;;;;;25.2;22.7;;;;;;;1.28;94.96191;970.8962;;;;
2020/01/12 01:27:34;;;;;;;25.6;22.9;;;;;;;1.14;95.89648;970.8934;;;;
2020/01/12 01:29:59;;;;;;;24.8;22.3;;;;;;;1.14;96.12109;970.8475;;;;
2020/01/12 01:32:24;;;;;;;24.8;22.2;;;;;;;1.2;96.0791;970.8523;;;;
2020/01/12 01:34:49;;;;;;;24.3;21.8;;;;;;;1.26;95.45215;970.8638;;;;
2020/01/12 01:37:15;;;;;;;24.6;22.1;;;;;;;1.12;96.35547;970.9434;;;;
2020/01/12 01:40:10;;;;;;;26.2;23.5;;;;;;;1;97.30664;970.8645;;;;
2020/01/12 01:42:35;;;;;;;24.1;21.6;;;;;;;1.21;96.11719;970.8577;;;;
2020/01/12 01:45:00;;;;;;;24.5;22;;;;;;;1.24;95.3125;970.798;;;;
2020/01/12 01:47:25;;;;;;;23.6;21.2;;;;;;;1.21;94.77734;970.7774;;;;
2020/01/12 01:49:50;;;;;;;24.3;21.7;;;;;;;1.21;94.92188;970.8333;;;;
2020/01/12 01:52:15;;;;;;;23.5;21.1;;;;;;;1.14;94.95215;970.8285;;;;
2020/01/12 01:54:41;;;;;;;24.6;22.1;;;;;;;0.98;95.58008;970.9072;;;;
2020/01/12 01:57:06;;;;;;;23.2;20.9;;;;;;;1.06;95.29297;970.8167;;;;
2020/01/12 01:59:31;;;;;;;23.8;21.4;;;;;;;1.02;95.50977;970.7233;;;;
2020/01/12 02:01:56;;;;;;;24;21.6;;;;;;;0.94;95.89844;970.7288;;;;
2020/01/12 02:06:47;;;;;;;24;21.5;;;;;;;0.92;95.90332;970.6941;;;;
2020/01/12 02:09:12;;;;;;;24.8;22.2;;;;;;;0.93;96.06348;970.6719;;;;
2020/01/12 02:12:12;;;;;;;23.3;21;;;;;;;0.93;95.7373;970.6575;;;;
2020/01/12 02:16:34;;;;;;;23.7;21.2;;;;;;;0.93;95.20605;970.5019;;;;
2020/01/12 02:18:53;;;;;;;23.1;20.8;;;;;;;1.08;94.48828;970.4911;;;;
2020/01/12 02:21:18;;;;;;;23.4;20.9;;;;;;;0.83;95.79297;970.5737;;;;
2020/01/12 02:23:43;;;;;;;23;20.7;;;;;;;0.87;94.89258;970.6331;;;;
2020/01/12 02:26:08;;;;;;;22.6;20.3;;;;;;;0.86;95.27246;970.5589;;;;
2020/01/12 02:28:34;;;;;;;21.7;19.6;;;;;;;0.93;94.53125;970.4906;;;;
2020/01/12 02:30:59;;;;;;;21.7;19.6;;;;;;;0.85;94.81836;970.5381;;;;
2020/01/12 02:33:24;;;;;;;22.3;20;;;;;;;0.83;94.78125;970.5589;;;;
2020/01/12 02:35:49;;;;;;;22;19.8;;;;;;;0.8;94.89648;970.5984;;;;
2020/01/12 02:38:14;;;;;;;21.5;19.4;;;;;;;0.75;94.95215;970.6186;;;;
2020/01/12 02:40:40;;;;;;;21;18.9;;;;;;;0.82;94.61914;970.5294;;;;
2020/01/12 02:43:05;;;;;;;20.9;18.9;;;;;;;0.91;94.29297;970.463;;;;
2020/01/12 02:45:30;;;;;;;21.1;19;;;;;;;0.77;94.38477;970.4986;;;;
2020/01/12 02:47:56;;;;;;;19.7;17.8;;;;;;;0.8;94.42578;970.4537;;;;
2020/01/12 02:50:21;;;;;;;21.4;19.2;;;;;;;0.63;95.26563;970.3753;;;;
2020/01/12 02:52:46;;;;;;;20.5;18.5;;;;;;;0.66;95.21484;970.3369;;;;
2020/01/12 02:55:12;;;;;;;21.3;19.3;;;;;;;0.59;95.17676;970.3688;;;;
2020/01/12 02:57:37;;;;;;;20.6;18.6;;;;;;;0.7;95.08984;970.3811;;;;
2020/01/12 03:00:02;;;;;;;21.3;19.2;;;;;;;0.75;94.86621;970.3699;;;;
2020/01/12 03:02:27;;;;;;;21.7;19.5;;;;;;;0.71;94.45117;970.324;;;;
2020/01/12 03:04:55;;;;;;;20.3;18.3;;;;;;;0.82;94.40723;970.2849;;;;
2020/01/12 03:07:22;;;;;;;20.4;18.4;;;;;;;0.83;94.15137;970.2428;;;;
2020/01/12 03:09:43;;;;;;;20.6;18.6;;;;;;;0.71;94.58594;970.2108;;;;
2020/01/12 03:12:08;;;;;;;20.4;18.4;;;;;;;0.78;94.32129;970.2086;;;;
2020/01/12 03:14:34;;;;;;;20.4;18.4;;;;;;;0.76;94.02441;970.2573;;;;
2020/01/12 03:16:59;;;;;;;20.7;18.7;;;;;;;0.83;93.79102;970.1925;;;;
2020/01/12 03:19:25;;;;;;;20.4;18.4;;;;;;;0.77;93.55176;970.187;;;;
2020/01/12 03:21:50;;;;;;;20.4;18.4;;;;;;;0.69;93.90527;970.2217;;;;
2020/01/12 03:24:32;;;;;;;20.6;18.5;;;;;;;0.71;93.67285;970.1937;;;;
2020/01/12 03:26:40;;;;;;;21.2;19.1;;;;;;;0.69;93.36523;970.1916;;;;
2020/01/12 03:29:05;;;;;;;20.5;18.5;;;;;;;0.6;94.01074;970.2081;;;;
2020/01/12 03:33:55;;;;;;;19.5;17.6;;;;;;;0.74;93.29883;970.152;;;;
2020/01/12 03:36:21;;;;;;;19.5;17.6;;;;;;;0.73;92.63281;970.1273;;;;
2020/01/12 03:38:46;;;;;;;19.2;17.4;;;;;;;0.59;92.46484;970.1359;;;;
2020/01/12 03:41:11;;;;;;;19.8;17.9;;;;;;;0.51;93.69727;970.0952;;;;
2020/01/12 03:43:36;;;;;;;18.4;16.6;;;;;;;0.54;93.66016;970.0311;;;;
2020/01/12 03:46:01;;;;;;;19.9;17.9;;;;;;;0.29;94.59277;969.9619;;;;
2020/01/12 03:48:26;;;;;;;20;18.1;;;;;;;0.26;94.28125;969.9561;;;;
2020/01/12 03:50:52;;;;;;;20;18;;;;;;;0.54;93.30957;970.0397;;;;
2020/01/12 03:53:17;;;;;;;18.6;16.8;;;;;;;0.7;92.64941;969.9738;;;;
2020/01/12 03:55:42;;;;;;;20.1;18.1;;;;;;;0.31;93.39648;969.8978;;;;
2020/01/12 03:58:07;;;;;;;18.8;17;;;;;;;0.58;92.91406;969.8117;;;;
2020/01/12 04:02:28;;;;;;;18.3;16.6;;;;;;;0.47;93.39648;969.76;;;;
2020/01/12 04:04:53;;;;;;;19.3;17.4;;;;;;;0.31;92.97852;969.8125;;;;
2020/01/12 04:07:18;;;;;;;20.1;18.2;;;;;;;0.03;94.92773;969.7758;;;;
2020/01/12 04:09:43;;;;;;;18.9;17.1;;;;;;;0.21;93.76563;969.698;;;;
2020/01/12 04:12:08;;;;;;;17.5;15.9;;;;;;;0.37;93.1709;969.7173;;;;
2020/01/12 04:14:33;;;;;;;17.5;15.9;;;;;;;0.52;92.12695;969.7322;;;;
2020/01/12 04:16:58;;;;;;;18;16.2;;;;;;;0.43;92.19727;969.744;;;;
2020/01/12 04:19:23;;;;;;;17.6;15.9;;;;;;;0.5;91.92969;969.7257;;;;
2020/01/12 04:21:49;;;;;;;16.6;14.9;;;;;;;0.55;91.45801;969.7392;;;;
2020/01/12 04:24:14;;;;;;;16.6;15;;;;;;;0.46;91.24609;969.769;;;;
2020/01/12 04:26:39;;;;;;;15.8;14.3;;;;;;;0.4;91.45898;969.8027;;;;
2020/01/12 04:29:04;;;;;;;16.1;14.5;;;;;;;0.41;91.06738;969.8367;;;;
2020/01/12 04:31:29;;;;;;;16.4;14.8;;;;;;;0.34;92.08789;969.7878;;;;
2020/01/12 04:33:54;;;;;;;15.9;14.3;;;;;;;0.42;91.43066;969.7584;;;;
2020/01/12 04:36:19;;;;;;;16.9;15.3;;;;;;;0.27;91.83398;969.7595;;;;
2020/01/12 04:38:44;;;;;;;16.5;14.9;;;;;;;0.16;92.49805;969.7687;;;;
2020/01/12 04:41:09;;;;;;;16.4;14.9;;;;;;;0.14;92.58203;969.7831;;;;
2020/01/12 04:43:35;;;;;;;16.3;14.7;;;;;;;0.21;92.6543;969.7941;;;;
2020/01/12 04:46:00;;;;;;;16.8;15.2;;;;;;;0.15;92.80859;969.8002;;;;
2020/01/12 04:48:25;;;;;;;17.4;15.7;;;;;;;0.03;93.68164;969.839;;;;
2020/01/12 04:50:50;;;;;;;17;15.4;;;;;;;0.21;92.75488;969.8752;;;;
2020/01/12 04:53:15;;;;;;;16.6;15;;;;;;;0.27;91.90332;969.8933;;;;
2020/01/12 04:55:40;;;;;;;16.7;15.1;;;;;;;0.23;92.04004;969.8467;;;;
2020/01/12 04:58:05;;;;;;;16.2;14.7;;;;;;;0.23;92.03125;969.8172;;;;
2020/01/12 05:00:30;;;;;;;17.3;15.7;;;;;;;-0.05;93.81836;969.8157;;;;
2020/01/12 05:02:55;;;;;;;16.9;15.3;;;;;;;0.03;93.86133;969.7701;;;;
2020/01/12 05:05:20;;;;;;;17.6;15.9;;;;;;;0.01;94.1582;969.7194;;;;
2020/01/12 05:07:45;;;;;;;18.5;16.7;;;;;;;-0.02;94.53418;969.7184;;;;
2020/01/12 05:10:10;;;;;;;17.9;16;;;;;;;0.05;93.83301;969.7291;;;;
2020/01/12 05:12:36;;;;;;;18.1;16.3;;;;;;;0.06;94.06934;969.6862;;;;
2020/01/12 05:15:01;;;;;;;19.9;18;;;;;;;-0.11;94.19922;969.681;;;;
2020/01/12 05:17:26;;;;;;;19.3;17.4;;;;;;;-0.12;94.56836;969.6269;;;;
2020/01/12 05:19:51;;;;;;;18.9;17.1;;;;;;;-0.12;94.83691;969.658;;;;
2020/01/12 05:22:16;;;;;;;19.7;17.8;;;;;;;0.09;94.41211;969.6433;;;;
2020/01/12 05:24:41;;;;;;;22.1;19.9;;;;;;;-0.05;95.20117;969.6872;;;;
2020/01/12 05:27:06;;;;;;;20.8;18.8;;;;;;;0.02;95.05859;969.7352;;;;
2020/01/12 05:29:31;;;;;;;21.9;19.8;;;;;;;0.02;95.2832;969.7152;;;;
2020/01/12 05:31:56;;;;;;;22;19.8;;;;;;;-0.13;95.50879;969.7088;;;;
2020/01/12 05:34:21;;;;;;;24.8;22.3;;;;;;;-0.58;98.44629;969.7297;;;;
2020/01/12 05:36:46;;;;;;;21.8;19.6;;;;;;;-0.23;97.71973;969.6964;;;;
2020/01/12 05:39:11;;;;;;;22.3;20;;;;;;;-0.21;96.94922;969.6672;;;;
2020/01/12 05:41:37;;;;;;;23.1;20.8;;;;;;;-0.12;96.44238;969.6541;;;;
2020/01/12 05:44:02;;;;;;;21.5;19.4;;;;;;;-0.1;95.91016;969.5455;;;;
2020/01/12 05:46:27;;;;;;;25.3;22.6;;;;;;;-0.63;98.50293;969.5796;;;;
2020/01/12 05:48:52;;;;;;;22.5;20.3;;;;;;;-0.48;97.98633;969.5975;;;;
2020/01/12 05:51:17;;;;;;;21.9;19.7;;;;;;;-0.33;96.97656;969.6445;;;;
2020/01/12 05:53:42;;;;;;;21.7;19.5;;;;;;;-0.28;96.60742;969.6203;;;;
2020/01/12 05:56:07;;;;;;;20.2;18.3;;;;;;;-0.18;96.46191;969.6263;;;;
2020/01/12 05:58:32;;;;;;;22.1;19.9;;;;;;;-0.17;96.2168;969.5994;;;;
2020/01/12 06:00:57;;;;;;;22.4;20.1;;;;;;;-0.26;97.11621;969.6316;;;;
2020/01/12 06:03:22;;;;;;;23.8;21.4;;;;;;;-0.31;97.52148;969.6221;;;;
2020/01/12 06:05:47;;;;;;;22.2;20;;;;;;;-0.27;97.47168;969.6642;;;;
2020/01/12 06:08:13;;;;;;;23;20.6;;;;;;;-0.31;97.13965;969.5606;;;;
2020/01/12 06:10:38;;;;;;;23.6;21.1;;;;;;;-0.4;97.72266;969.5696;;;;
2020/01/12 06:13:03;;;;;;;23.8;21.2;;;;;;;-0.14;96.95508;969.5569;;;;
2020/01/12 06:15:28;;;;;;;24.7;21.9;;;;;;;-0.07;96.08203;969.4866;;;;
2020/01/12 06:17:53;;;;;;;29.3;23.2;;;;;;;-0.08;96.04688;969.525;;;;
2020/01/12 06:20:18;;;;;;;27.4;22.9;;;;;;;-0.08;95.99023;969.4321;;;;
2020/01/12 06:22:43;;;;;;;24.7;22;;;;;;;-0.26;96.93945;969.4631;;;;
2020/01/12 06:25:08;;;;;;;24.1;21.5;;;;;;;-0.46;97.54199;969.5249;;;;
2020/01/12 06:27:33;;;;;;;21.5;19.4;;;;;;;-0.27;96.6543;969.5291;;;;
2020/01/12 06:29:58;;;;;;;22.1;19.8;;;;;;;-0.49;97.40137;969.5533;;;;
2020/01/12 06:32:24;;;;;;;32.1;24;;;;;;;-0.54;98.32031;969.4961;;;;
2020/01/12 06:34:49;;;;;;;29.3;23.1;;;;;;;-0.45;97.4209;969.4782;;;;
2020/01/12 06:37:14;;;;;;;30.2;24.8;;;;;;;-0.41;98.1377;969.5129;;;;
2020/01/12 06:39:39;;;;;;;29.9;24.3;;;;;;;-0.84;100;969.4532;;;;
2020/01/12 06:42:05;;;;;;;29.7;23.7;;;;;;;-0.86;100;969.496;;;;
2020/01/12 06:44:30;;;;;;;24.2;21.6;;;;;;;-0.7;100;969.4747;;;;
2020/01/12 06:46:55;;;;;;;23.6;21.1;;;;;;;-0.56;99.52441;969.4253;;;;
2020/01/12 06:49:20;;;;;;;22.7;20.3;;;;;;;-0.55;98.46387;969.4781;;;;
2020/01/12 06:51:45;;;;;;;23.2;20.8;;;;;;;-0.65;99.13574;969.4639;;;;
2020/01/12 06:54:10;;;;;;;22.8;20.1;;;;;;;-0.56;98.40332;969.4291;;;;
2020/01/12 06:56:35;;;;;;;21.3;19.1;;;;;;;-0.67;97.60449;969.3957;;;;
2020/01/12 06:59:00;;;;;;;21.7;19.5;;;;;;;-0.78;98.75879;969.3591;;;;
2020/01/12 07:03:51;;;;;;;19.5;17.6;;;;;;;-0.47;96.95703;969.4522;;;;
2020/01/12 07:06:16;;;;;;;20.9;18.7;;;;;;;-0.71;98.37012;969.4016;;;;
2020/01/12 07:08:41;;;;;;;22.7;20.4;;;;;;;-0.94;99.15527;969.4044;;;;
2020/01/12 07:11:06;;;;;;;24.5;21.9;;;;;;;-0.62;98.29004;969.4797;;;;
2020/01/12 07:13:31;;;;;;;20.3;18.2;;;;;;;-0.64;97.64648;969.4554;;;;
2020/01/12 07:15:56;;;;;;;20.8;18.7;;;;;;;-0.71;97.47266;969.4244;;;;
2020/01/12 07:18:21;;;;;;;20.1;18.1;;;;;;;-0.92;98.66895;969.4426;;;;
2020/01/12 07:20:47;;;;;;;21.8;19.5;;;;;;;-1.13;99.24609;969.4363;;;;
2020/01/12 07:23:12;;;;;;;22.3;19.9;;;;;;;-1.25;99.85645;969.314;;;;
2020/01/12 07:25:37;;;;;;;22;19.8;;;;;;;-1;99.58008;969.3439;;;;
2020/01/12 07:28:02;;;;;;;19.6;17.7;;;;;;;-0.82;98.28906;969.3284;;;;
2020/01/12 07:30:27;;;;;;;18.3;16.5;;;;;;;-0.65;97.53027;969.351;;;;
2020/01/12 07:32:52;;;;;;;18.8;17;;;;;;;-0.58;97.01953;969.3948;;;;
2020/01/12 07:35:17;;;;;;;18.2;16.4;;;;;;;-0.45;96.24316;969.3633;;;;
2020/01/12 07:37:42;;;;;;;22.3;19.1;;;;;;;-0.9;97.98926;969.4292;;;;
2020/01/12 07:40:07;;;;;;;21;18.8;;;;;;;-0.78;98.47656;969.4497;;;;
2020/01/12 07:42:32;;;;;;;21.9;19.5;;;;;;;-0.68;98.57813;969.5;;;;
2020/01/12 07:44:57;;;;;;;21.2;18.9;;;;;;;-0.85;99.28906;969.4537;;;;
2020/01/12 07:47:22;;;;;;;21.1;18.9;;;;;;;-0.76;98.98535;969.4152;;;;
2020/01/12 07:49:48;;;;;;;19;17;;;;;;;-0.36;96.71289;969.4397;;;;
2020/01/12 07:52:13;;;;;;;17.6;15.8;;;;;;;-0.31;96.69141;969.4838;;;;
2020/01/12 07:54:38;;;;;;;18.8;16.9;;;;;;;-0.58;97.14551;969.5728;;;;
2020/01/12 07:57:03;;;;;;;20;18;;;;;;;-0.46;97.51953;969.5889;;;;
2020/01/12 07:59:28;;;;;;;20.6;18.5;;;;;;;-0.42;97.8418;969.6272;;;;
2020/01/12 08:01:53;;;;;;;21.1;18.9;;;;;;;-0.03;96.21582;969.5921;;;;
2020/01/12 08:04:18;;;;;;;24.9;21.4;;;;;;;-0.49;98.11914;969.6183;;;;
2020/01/12 08:06:44;;;;;;;23.8;20.5;;;;;;;-0.16;97.1748;969.662;;;;
2020/01/12 08:09:09;;;;;;;24;20.5;;;;;;;-0.04;96.69434;969.6786;;;;
2020/01/12 08:11:34;;;;;;;29.1;22.7;;;;;;;-0.24;97.98438;969.6019;;;;
2020/01/12 08:13:59;;;;;;;30.7;23.2;;;;;;;-0.28;98.70605;969.6777;;;;
2020/01/12 08:16:24;;;;;;;27.1;21.4;;;;;;;-0.24;98.40039;969.633;;;;
2020/01/12 08:18:49;;;;;;;25.4;21.4;;;;;;;-0.26;98.55273;969.6395;;;;
2020/01/12 08:21:15;;;;;;;20.5;18.3;;;;;;;-0.05;96.51465;969.6949;;;;
2020/01/12 08:23:40;;;;;;;32.4;19.2;;;;;;;-0.58;98.36523;969.7805;;;;
2020/01/12 08:26:05;;;;;;;31.9;20.8;;;;;;;-0.34;98.34375;969.8536;;;;
2020/01/12 08:28:30;;;;;;;22.7;20.3;;;;;;;-0.13;98.43848;969.9305;;;;
2020/01/12 08:30:55;;;;;;;28.6;22.9;;;;;;;-0.5;100;969.9119;;;;
2020/01/12 08:33:21;;;;;;;42.8;23.1;;;;;;;-0.74;100;969.9133;;;;
2020/01/12 08:35:46;;;;;;;33.4;24.1;;;;;;;-0.66;100;969.9288;;;;
2020/01/12 08:43:11;;;;;;;30.7;24.3;;;;;;;-0.46;100;969.9709;;;;
2020/01/12 08:47:35;;;;;;;36.8;23.3;;;;;;;-0.22;99.52637;969.986;;;;
2020/01/12 08:53:06;;;;;;;30.7;22;;;;;;;-0.16;98.84766;969.834;;;;
2020/01/12 08:55:36;;;;;;;31.5;24.1;;;;;;;-0.57;100;969.9461;;;;
2020/01/12 08:57:55;;;;;;;25.1;22.4;;;;;;;-0.13;100;969.8231;;;;
2020/01/12 09:00:21;;;;;;;26.1;22.3;;;;;;;-0.04;99.25684;969.8945;;;;
2020/01/12 09:02:46;;;;;;;43.7;24.6;;;;;;;-0.41;99.85254;969.9411;;;;
2020/01/12 09:05:11;;;;;;;38.4;25.6;;;;;;;-0.49;100;969.9398;;;;
2020/01/12 09:07:36;;;;;;;26.8;22.3;;;;;;;0.02;99.65039;969.9283;;;;
2020/01/12 09:10:01;;;;;;;27.3;23;;;;;;;0.07;99.32715;969.9061;;;;
2020/01/12 09:12:26;;;;;;;28.1;20.5;;;;;;;0.09;97.97168;969.9609;;;;
2020/01/12 09:14:51;;;;;;;25.2;20;;;;;;;-0.02;99.31641;969.9366;;;;
2020/01/12 09:17:16;;;;;;;23;19.7;;;;;;;0.38;97.15332;969.9444;;;;
2020/01/12 09:19:41;;;;;;;21.8;19.4;;;;;;;0.45;96.33789;970.0229;;;;
2020/01/12 09:22:07;;;;;;;22.2;18.5;;;;;;;0.43;96.43262;970.0942;;;;
2020/01/12 09:24:32;;;;;;;24.5;20.8;;;;;;;0.07;98.19434;970.0897;;;;
2020/01/12 09:26:57;;;;;;;23.6;20.9;;;;;;;0.12;98.58691;970.0485;;;;
2020/01/12 09:29:23;;;;;;;26.4;22;;;;;;;0.28;97.1748;970.0895;;;;
2020/01/12 09:31:47;;;;;;;22.4;20;;;;;;;0.4;97.4043;970.2166;;;;
2020/01/12 09:34:12;;;;;;;23.5;20.1;;;;;;;0.27;97.86719;970.1696;;;;
2020/01/12 09:36:37;;;;;;;29.5;21.4;;;;;;;-0.14;99.70215;970.2758;;;;
2020/01/12 09:39:03;;;;;;;23.5;20.9;;;;;;;0.2;98.77246;970.3083;;;;
2020/01/12 09:41:27;;;;;;;24.6;20;;;;;;;0.19;98.19922;970.2483;;;;
2020/01/12 09:43:52;;;;;;;22.7;20.3;;;;;;;0.47;97.56738;970.3405;;;;
2020/01/12 09:46:17;;;;;;;22.5;20.2;;;;;;;0.6;96.95703;970.3201;;;;
2020/01/12 09:48:42;;;;;;;23.3;20.8;;;;;;;0.59;96.93066;970.331;;;;
2020/01/12 09:51:07;;;;;;;27;21.4;;;;;;;0.36;97.66602;970.4176;;;;
2020/01/12 09:53:33;;;;;;;22.6;20.2;;;;;;;0.45;97.60742;970.4476;;;;
2020/01/12 09:55:58;;;;;;;23.5;21.1;;;;;;;0.54;97.22363;970.3897;;;;
2020/01/12 09:58:23;;;;;;;25;22.3;;;;;;;0.35;98.51563;970.3996;;;;
2020/01/12 10:00:48;;;;;;;24.3;21.8;;;;;;;0.39;98.89648;970.4006;;;;
2020/01/12 10:03:13;;;;;;;24.6;22;;;;;;;0.56;97.69824;970.3987;;;;
2020/01/12 10:05:38;;;;;;;27.4;22.4;;;;;;;0.57;97.73535;970.3851;;;;
2020/01/12 10:08:03;;;;;;;24;21.6;;;;;;;0.59;97.88574;970.3635;;;;
2020/01/12 10:10:28;;;;;;;25.2;22.6;;;;;;;0.34;99.13184;970.431;;;;
2020/01/12 10:12:53;;;;;;;24.8;22.2;;;;;;;0.69;98.03223;970.3567;;;;
2020/01/12 10:15:18;;;;;;;25.9;23.2;;;;;;;0.64;98.2793;970.35;;;;
2020/01/12 10:17:43;;;;;;;26.3;23.6;;;;;;;0.65;98.60938;970.3895;;;;
2020/01/12 10:20:10;;;;;;;29;24.2;;;;;;;0.6;98.59863;970.3811;;;;
2020/01/12 10:22:34;;;;;;;28;24.5;;;;;;;0.65;99.40723;970.3494;;;;
2020/01/12 10:24:59;;;;;;;28.3;25.2;;;;;;;0.91;98.62695;970.2668;;;;
2020/01/12 10:27:24;;;;;;;28.4;24.7;;;;;;;0.96;98.79297;970.2891;;;;
2020/01/12 10:29:49;;;;;;;28.8;24.6;;;;;;;1.24;97.5293;970.325;;;;
2020/01/12 10:32:14;;;;;;;24.8;22.2;;;;;;;1.34;96.31445;970.336;;;;
2020/01/12 10:34:39;;;;;;;27.5;24.5;;;;;;;1.09;98.26367;970.2847;;;;
2020/01/12 10:37:04;;;;;;;27.4;24.3;;;;;;;1.06;98.43555;970.296;;;;
2020/01/12 10:39:30;;;;;;;26.1;23.4;;;;;;;1.22;97.15527;970.2451;;;;
2020/01/12 10:41:55;;;;;;;27.5;24.5;;;;;;;1.25;97.7373;970.1653;;;;
2020/01/12 10:44:20;;;;;;;27.5;24.6;;;;;;;1.17;98.38086;970.1113;;;;
2020/01/12 10:46:45;;;;;;;29;25.4;;;;;;;1.13;99.04688;970.0488;;;;
2020/01/12 10:49:11;;;;;;;29.2;25.6;;;;;;;1.13;99.03711;970.0243;;;;
2020/01/12 10:51:36;;;;;;;31.6;27.3;;;;;;;0.99;100;970.0229;;;;
2020/01/12 10:54:01;;;;;;;31.4;26.8;;;;;;;1.32;99.26172;970.0204;;;;
2020/01/12 10:56:27;;;;;;;30.7;26.6;;;;;;;1.28;99.13867;969.9919;;;;
2020/01/12 10:58:52;;;;;;;29;25.5;;;;;;;1.38;99.25195;969.9705;;;;
2020/01/12 11:01:17;;;;;;;32.8;27.3;;;;;;;1.38;98.36328;969.9467;;;;
2020/01/12 11:03:42;;;;;;;29.3;26;;;;;;;1.59;97.57715;969.9065;;;;
2020/01/12 11:06:07;;;;;;;32.3;27.4;;;;;;;1.45;98.78418;969.8597;;;;
2020/01/12 11:08:32;;;;;;;33.8;28.6;;;;;;;1.33;99.18457;969.8055;;;;
2020/01/12 11:10:58;;;;;;;33.3;28.5;;;;;;;1.5;98.45605;969.7966;;;;
2020/01/12 11:13:23;;;;;;;30.7;27.1;;;;;;;1.59;98.54688;969.8088;;;;
2020/01/12 11:15:49;;;;;;;30.7;27.3;;;;;;;1.83;96.91211;969.8084;;;;
2020/01/12 11:18:14;;;;;;;32.6;28.9;;;;;;;1.55;97.82813;969.7714;;;;
2020/01/12 11:20:39;;;;;;;32.6;28.6;;;;;;;1.48;98.12793;969.6839;;;;
2020/01/12 11:23:05;;;;;;;35.9;30.5;;;;;;;1.5;99.16797;969.6852;;;;
2020/01/12 11:25:30;;;;;;;32.6;28.4;;;;;;;1.59;98.0957;969.6916;;;;
2020/01/12 11:27:55;;;;;;;32.7;27.8;;;;;;;1.78;97.66602;969.6843;;;;
2020/01/12 11:30:20;;;;;;;31.8;28.3;;;;;;;1.74;97.63574;969.661;;;;
2020/01/12 11:32:45;;;;;;;33.5;28.8;;;;;;;1.69;97.87109;969.6838;;;;
2020/01/12 11:35:10;;;;;;;32.5;28.7;;;;;;;1.88;97.44043;969.5961;;;;
2020/01/12 11:37:36;;;;;;;33.6;29.3;;;;;;;1.94;97.35156;969.5552;;;;
2020/01/12 11:40:01;;;;;;;31.7;28;;;;;;;1.86;96.89551;969.5817;;;;
2020/01/12 11:42:26;;;;;;;32.7;28.8;;;;;;;1.75;97.3877;969.5383;;;;
2020/01/12 11:44:52;;;;;;;32.5;28.9;;;;;;;1.74;97.19531;969.4344;;;;
2020/01/12 11:47:17;;;;;;;33.7;29.4;;;;;;;1.55;97.86035;969.4764;;;;
2020/01/12 11:49:42;;;;;;;33.6;29.5;;;;;;;1.68;97.76758;969.4398;;;;
2020/01/12 11:52:07;;;;;;;34.9;31;;;;;;;1.58;98.37402;969.4278;;;;
2020/01/12 11:54:32;;;;;;;32.9;28.8;;;;;;;1.98;96.53809;969.4334;;;;
2020/01/12 11:56:57;;;;;;;31.9;28.4;;;;;;;2.08;96.42578;969.3879;;;;
2020/01/12 11:59:23;;;;;;;32.1;28.6;;;;;;;2.31;95.32715;969.3209;;;;
2020/01/12 12:01:48;;;;;;;32;28.6;;;;;;;2.42;93.94141;969.2679;;;;
2020/01/12 12:04:13;;;;;;;32.3;28.8;;;;;;;2.22;94.6748;969.2617;;;;
2020/01/12 12:06:38;;;;;;;31.6;28.3;;;;;;;2.28;93.64844;969.2456;;;;
2020/01/12 12:09:04;;;;;;;34.5;30.7;;;;;;;2.19;95.01465;969.2347;;;;
2020/01/12 12:11:29;;;;;;;32.1;28.7;;;;;;;2.23;94.68945;969.2488;;;;
2020/01/12 12:13:54;;;;;;;32.6;28.8;;;;;;;2.2;94.32031;969.2147;;;;
2020/01/12 12:16:20;;;;;;;32.2;28.8;;;;;;;2.11;94.76172;969.197;;;;
2020/01/12 12:18:45;;;;;;;32.1;28.7;;;;;;;2.17;94.91309;969.1786;;;;
2020/01/12 12:21:15;;;;;;;31.4;28;;;;;;;2.21;93.86035;969.1531;;;;
2020/01/12 12:23:40;;;;;;;32.1;28.7;;;;;;;2.11;94.18555;969.152;;;;
2020/01/12 12:26:05;;;;;;;32.3;28.9;;;;;;;2.34;93.49414;969.1902;;;;
2020/01/12 12:28:30;;;;;;;31.1;27.9;;;;;;;2.38;92.52051;969.184;;;;
2020/01/12 12:30:55;;;;;;;31.9;28.5;;;;;;;2.38;93.34473;969.0875;;;;
2020/01/12 12:33:20;;;;;;;34;30.3;;;;;;;2.02;94.88965;969.0747;;;;
2020/01/12 12:35:46;;;;;;;34.5;30.6;;;;;;;2.09;94.79102;969.0669;;;;
2020/01/12 12:38:11;;;;;;;33.5;30;;;;;;;2.01;94.6377;969.0916;;;;
2020/01/12 12:40:36;;;;;;;34.9;31.1;;;;;;;2.16;94.84082;969.0413;;;;
2020/01/12 12:43:36;;;;;;;32.9;29.4;;;;;;;2.55;93.42676;968.9763;;;;
2020/01/12 12:46:01;;;;;;;32.2;28.9;;;;;;;2.62;92.69727;968.9268;;;;
2020/01/12 12:48:26;;;;;;;33;29.6;;;;;;;2.48;92.68848;968.8908;;;;
2020/01/12 12:50:51;;;;;;;33.2;29.7;;;;;;;2.61;92.65039;968.8973;;;;
2020/01/12 12:53:16;;;;;;;32.6;29.2;;;;;;;2.72;91.80371;968.8734;;;;
2020/01/12 12:55:41;;;;;;;31.8;28.5;;;;;;;2.72;92.23242;968.8875;;;;
2020/01/12 12:58:07;;;;;;;34.1;30.6;;;;;;;2.6;92.43164;968.8858;;;;
2020/01/12 13:00:32;;;;;;;33.4;29.9;;;;;;;2.83;91.98438;968.8508;;;;
2020/01/12 13:02:57;;;;;;;32.7;29.3;;;;;;;3.06;90.71191;968.855;;;;
2020/01/12 13:05:22;;;;;;;32.2;28.9;;;;;;;3.24;89.78906;968.8386;;;;
2020/01/12 13:07:47;;;;;;;32.9;29.6;;;;;;;3.32;89.71484;968.866;;;;
2020/01/12 13:10:12;;;;;;;32.2;28.9;;;;;;;3.36;89.22656;968.8303;;;;
2020/01/12 13:12:37;;;;;;;33.6;30.1;;;;;;;3.23;89.49219;968.8;;;;
2020/01/12 13:15:02;;;;;;;33;29.7;;;;;;;3.16;90.50684;968.8343;;;;
2020/01/12 13:17:27;;;;;;;34.3;30.7;;;;;;;2.87;91.99414;968.7805;;;;
2020/01/12 13:19:52;;;;;;;33.9;30.4;;;;;;;2.92;91.98145;968.7597;;;;
2020/01/12 13:22:17;;;;;;;35.1;31.5;;;;;;;3.03;91.56543;968.7459;;;;
2020/01/12 13:24:42;;;;;;;34.1;30.6;;;;;;;3.04;91.53418;968.7039;;;;
2020/01/12 13:27:08;;;;;;;34.2;30.8;;;;;;;3.26;90.76758;968.5631;;;;
2020/01/12 13:29:33;;;;;;;34;30.5;;;;;;;3.4;89.86621;968.5737;;;;
2020/01/12 13:31:58;;;;;;;34.7;31.1;;;;;;;3.36;89.99609;968.4894;;;;
2020/01/12 13:34:23;;;;;;;34.4;30.9;;;;;;;3.19;90.30859;968.4716;;;;
2020/01/12 13:36:48;;;;;;;34.4;30.9;;;;;;;3.19;90.87695;968.4235;;;;
2020/01/12 13:39:13;;;;;;;33.3;29.9;;;;;;;3.26;90.49609;968.4319;;;;
2020/01/12 13:41:38;;;;;;;33.3;29.9;;;;;;;3.38;90.1582;968.4755;;;;
2020/01/12 13:44:03;;;;;;;33.3;30;;;;;;;3.19;90.10547;968.5111;;;;
2020/01/12 13:46:28;;;;;;;32.5;29.3;;;;;;;3.5;89.86621;968.5094;;;;
2020/01/12 13:49:02;;;;;;;33.4;30.1;;;;;;;3.29;90.47656;968.463;;;;
2020/01/12 13:51:19;;;;;;;32.6;29.3;;;;;;;3.34;90.72656;968.4733;;;;
2020/01/12 13:53:44;;;;;;;33.7;30.4;;;;;;;3.26;90.98047;968.4272;;;;
2020/01/12 13:56:09;;;;;;;32.8;29.6;;;;;;;3.37;90.7207;968.4858;;;;
2020/01/12 13:58:34;;;;;;;33;29.7;;;;;;;3.49;90.43066;968.4584;;;;
2020/01/12 14:00:59;;;;;;;31.7;28.5;;;;;;;3.72;89.41309;968.4207;;;;
2020/01/12 14:03:24;;;;;;;33.6;30.2;;;;;;;3.53;89.73828;968.4323;;;;
2020/01/12 14:05:50;;;;;;;32.8;29.5;;;;;;;3.72;89.59668;968.4103;;;;
2020/01/12 14:08:15;;;;;;;33.7;30.3;;;;;;;3.71;89.68359;968.4308;;;;
2020/01/12 14:10:40;;;;;;;33;29.8;;;;;;;3.66;90.0459;968.4051;;;;
2020/01/12 14:13:06;;;;;;;32.2;29;;;;;;;3.79;89.49609;968.4531;;;;
2020/01/12 14:15:31;;;;;;;33.7;30.3;;;;;;;3.48;91.10547;968.4498;;;;
2020/01/12 14:17:56;;;;;;;32.5;29.3;;;;;;;3.58;90.63086;968.3939;;;;
2020/01/12 14:20:21;;;;;;;32.1;28.9;;;;;;;3.76;90.2832;968.4124;;;;